Time;durP1;ratioP1;P1;durP2;ratioP2;P2;SDS_P1;SDS_P2;PMS_P1;PMS_P2;Temp;Humidity;BMP_temperature;BMP_pressure;BME280_temperature;BME280_humidity;BME280_pressure;Samples;Min_cycle;Max_cycle;Signal;HPM_P1;HPM_P2
2022/11/26 00:01:40;;;;;;;4.20;3.63;;;;;;;;;;5052799;28;20316;-79
2022/11/26 00:04:09;;;;;;;4.00;3.27;;;;;;;;;;5052633;28;20209;-79
2022/11/26 00:06:37;;;;;;;4.70;4.07;;;;;;;;;;5052418;28;20202;-79
2022/11/26 00:09:05;;;;;;;4.63;3.87;;;;;;;;;;5066005;28;20225;-80
2022/11/26 00:11:32;;;;;;;4.47;3.93;;;;;;;;;;5052166;28;20237;-80
2022/11/26 00:13:59;;;;;;;3.47;3.17;;;;;;;;;;5052541;28;20213;-79
2022/11/26 00:16:27;;;;;;;3.67;3.07;;;;;;;;;;5051840;28;20936;-80
2022/11/26 00:18:53;;;;;;;4.47;3.47;;;;;;;;;;5052170;28;20201;-79
2022/11/26 00:21:26;;;;;;;4.90;3.73;;;;;;;;;;5052055;28;20712;-79
2022/11/26 00:23:53;;;;;;;3.27;2.97;;;;;;;;;;5051764;28;20232;-80
2022/11/26 00:26:22;;;;;;;4.63;3.37;;;;;;;;;;5058201;28;20219;-81
2022/11/26 00:28:50;;;;;;;4.47;4.00;;;;;;;;;;5059129;28;20221;-81
2022/11/26 00:31:18;;;;;;;4.73;3.53;;;;;;;;;;5051853;28;20194;-81
2022/11/26 00:33:44;;;;;;;4.07;3.53;;;;;;;;;;5063372;28;20229;-80
2022/11/26 00:36:17;;;;;;;3.53;3.13;;;;;;;;;;5054301;28;20673;-81
2022/11/26 00:38:45;;;;;;;3.33;2.83;;;;;;;;;;5066123;28;20214;-79
2022/11/26 00:41:15;;;;;;;5.03;4.20;;;;;;;;;;5061392;28;20201;-81
2022/11/26 00:43:42;;;;;;;7.33;4.13;;;;;;;;;;5058123;28;20225;-80
2022/11/26 00:46:12;;;;;;;3.80;2.67;;;;;;;;;;5062736;28;20213;-80
2022/11/26 00:48:39;;;;;;;6.33;3.80;;;;;;;;;;5051596;28;20221;-80
2022/11/26 00:51:06;;;;;;;3.50;3.20;;;;;;;;;;5051658;28;20213;-79
2022/11/26 00:53:33;;;;;;;4.33;3.67;;;;;;;;;;5051437;28;20585;-80
2022/11/26 00:56:01;;;;;;;3.83;3.20;;;;;;;;;;5051270;28;20197;-80
2022/11/26 00:58:30;;;;;;;5.60;4.00;;;;;;;;;;5051602;28;20749;-80
2022/11/26 01:00:58;;;;;;;5.07;3.90;;;;;;;;;;5051122;28;20592;-80
2022/11/26 01:03:25;;;;;;;8.60;4.63;;;;;;;;;;5051217;28;20201;-80
2022/11/26 01:05:53;;;;;;;7.37;5.27;;;;;;;;;;5051173;28;20561;-79
2022/11/26 01:08:29;;;;;;;6.07;4.07;;;;;;;;;;5051162;28;20212;-80
2022/11/26 01:10:57;;;;;;;7.30;4.70;;;;;;;;;;5064328;28;20715;-80
2022/11/26 01:13:25;;;;;;;5.40;4.10;;;;;;;;;;5050897;28;20603;-80
2022/11/26 01:15:52;;;;;;;3.43;3.03;;;;;;;;;;5050900;28;20205;-81
2022/11/26 01:18:20;;;;;;;3.10;2.73;;;;;;;;;;5051126;28;20202;-80
2022/11/26 01:20:47;;;;;;;3.87;3.13;;;;;;;;;;5050717;28;20688;-80
2022/11/26 01:23:17;;;;;;;5.63;3.43;;;;;;;;;;5051181;28;20692;-81
2022/11/26 01:25:45;;;;;;;3.80;3.40;;;;;;;;;;5050984;28;20202;-81
2022/11/26 01:28:13;;;;;;;3.50;3.20;;;;;;;;;;5050952;28;20569;-81
2022/11/26 01:30:42;;;;;;;5.27;4.33;;;;;;;;;;5050290;28;20287;-81
2022/11/26 01:33:09;;;;;;;6.33;4.27;;;;;;;;;;5065083;28;20771;-81
2022/11/26 01:35:36;;;;;;;3.93;3.17;;;;;;;;;;5060723;28;20197;-81
2022/11/26 01:38:03;;;;;;;7.10;4.57;;;;;;;;;;5067054;28;20342;-80
2022/11/26 01:40:39;;;;;;;6.73;4.10;;;;;;;;;;5056218;28;20251;-81
2022/11/26 01:43:09;;;;;;;5.10;3.77;;;;;;;;;;5059026;28;20251;-81
2022/11/26 01:45:36;;;;;;;4.77;4.03;;;;;;;;;;5054895;28;20618;-80
2022/11/26 01:48:13;;;;;;;7.70;5.43;;;;;;;;;;5060151;28;20209;-81
2022/11/26 01:50:55;;;;;;;5.87;4.07;;;;;;;;;;5064557;28;20241;-81
2022/11/26 01:53:27;;;;;;;8.87;6.10;;;;;;;;;;5050568;28;20214;-81
2022/11/26 01:55:57;;;;;;;8.73;6.27;;;;;;;;;;5050282;28;20292;-81
2022/11/26 01:58:27;;;;;;;7.13;4.90;;;;;;;;;;5050446;28;20209;-81
2022/11/26 02:00:54;;;;;;;11.00;4.80;;;;;;;;;;5050247;28;20584;-81
2022/11/26 02:03:22;;;;;;;7.70;4.87;;;;;;;;;;5050576;28;20202;-82
2022/11/26 02:05:56;;;;;;;4.77;4.00;;;;;;;;;;5050935;28;20209;-80
2022/11/26 02:08:25;;;;;;;4.10;3.67;;;;;;;;;;5050744;28;20197;-80
2022/11/26 02:10:52;;;;;;;5.00;3.80;;;;;;;;;;5050424;28;20233;-81
2022/11/26 02:13:19;;;;;;;4.80;3.97;;;;;;;;;;5059101;28;20212;-80
2022/11/26 02:15:52;;;;;;;4.63;3.57;;;;;;;;;;5055624;28;20205;-80
2022/11/26 02:18:20;;;;;;;8.93;4.37;;;;;;;;;;5058089;28;20215;-80
2022/11/26 02:20:52;;;;;;;8.53;4.67;;;;;;;;;;5056599;28;20205;-80
2022/11/26 02:23:38;;;;;;;10.37;6.13;;;;;;;;;;5052698;28;20194;-80
2022/11/26 02:26:35;;;;;;;7.47;4.83;;;;;;;;;;5053880;28;20197;-81
2022/11/26 02:29:08;;;;;;;7.43;3.97;;;;;;;;;;5054393;28;20677;-81
2022/11/26 02:31:40;;;;;;;3.80;3.03;;;;;;;;;;5068368;28;20198;-81
2022/11/26 02:34:13;;;;;;;4.97;3.93;;;;;;;;;;5054410;28;20639;-80
2022/11/26 02:36:47;;;;;;;5.13;4.13;;;;;;;;;;5058352;28;20205;-80
2022/11/26 02:39:15;;;;;;;4.43;3.57;;;;;;;;;;5074296;28;20242;-81
2022/11/26 02:41:43;;;;;;;2.67;2.47;;;;;;;;;;5074211;28;20212;-80
2022/11/26 02:44:10;;;;;;;3.60;3.30;;;;;;;;;;5067236;28;20213;-80
2022/11/26 02:46:39;;;;;;;4.20;3.17;;;;;;;;;;5066455;28;20205;-80
2022/11/26 02:49:06;;;;;;;3.87;3.47;;;;;;;;;;5059732;28;20197;-80
2022/11/26 02:51:33;;;;;;;4.87;4.23;;;;;;;;;;5062405;28;20202;-80
2022/11/26 02:54:00;;;;;;;3.97;3.63;;;;;;;;;;5053062;28;20202;-80
2022/11/26 02:56:28;;;;;;;3.30;3.00;;;;;;;;;;5054009;28;20213;-80
2022/11/26 02:58:55;;;;;;;3.77;3.30;;;;;;;;;;5067875;28;20578;-81
2022/11/26 03:01:28;;;;;;;3.30;3.00;;;;;;;;;;5053646;28;20198;-80
2022/11/26 03:03:58;;;;;;;3.77;3.10;;;;;;;;;;5053918;28;20293;-81
2022/11/26 03:06:26;;;;;;;3.50;2.90;;;;;;;;;;5053058;28;20230;-82
2022/11/26 03:08:54;;;;;;;3.20;2.90;;;;;;;;;;5054037;28;20205;-81
2022/11/26 03:11:21;;;;;;;2.93;2.73;;;;;;;;;;5057274;28;20260;-80
2022/11/26 03:13:48;;;;;;;3.23;2.93;;;;;;;;;;5053220;28;20256;-80
2022/11/26 03:16:15;;;;;;;4.10;3.40;;;;;;;;;;5067609;28;20600;-81
2022/11/26 03:18:43;;;;;;;3.47;3.17;;;;;;;;;;5053842;28;20206;-81
2022/11/26 03:21:11;;;;;;;3.67;3.00;;;;;;;;;;5067043;28;20244;-81
2022/11/26 03:23:38;;;;;;;3.83;3.13;;;;;;;;;;5053426;28;20681;-81
2022/11/26 03:26:05;;;;;;;4.90;3.00;;;;;;;;;;5066776;28;20205;-81
2022/11/26 03:28:32;;;;;;;3.57;3.07;;;;;;;;;;5053530;28;20202;-81
2022/11/26 03:30:58;;;;;;;3.57;2.60;;;;;;;;;;5053337;28;20229;-81
2022/11/26 03:33:25;;;;;;;3.10;2.90;;;;;;;;;;5053017;28;20226;-82
2022/11/26 03:35:52;;;;;;;3.30;3.00;;;;;;;;;;5052310;28;20216;-81
2022/11/26 03:38:20;;;;;;;3.00;2.70;;;;;;;;;;5081100;28;20208;-81
2022/11/26 03:40:55;;;;;;;3.63;3.30;;;;;;;;;;5053143;28;20293;-81
2022/11/26 03:43:22;;;;;;;3.30;2.97;;;;;;;;;;5053449;28;20205;-81
2022/11/26 03:45:49;;;;;;;4.43;3.73;;;;;;;;;;5052862;28;20214;-81
2022/11/26 03:48:16;;;;;;;3.33;2.63;;;;;;;;;;5052545;28;20206;-81
2022/11/26 03:50:42;;;;;;;2.73;2.53;;;;;;;;;;5056731;28;20240;-81
2022/11/26 03:53:09;;;;;;;3.30;3.00;;;;;;;;;;5062295;28;20680;-81
2022/11/26 03:55:37;;;;;;;5.10;3.87;;;;;;;;;;5052317;28;20202;-81
2022/11/26 03:58:04;;;;;;;3.13;2.83;;;;;;;;;;5052415;28;20205;-81
2022/11/26 04:00:31;;;;;;;4.03;3.63;;;;;;;;;;5052554;28;20638;-81
2022/11/26 04:02:58;;;;;;;3.80;2.87;;;;;;;;;;5052617;28;20272;-81
2022/11/26 04:05:24;;;;;;;5.23;4.37;;;;;;;;;;5052563;28;20681;-82
2022/11/26 04:07:51;;;;;;;5.23;4.73;;;;;;;;;;5052231;28;20621;-81
2022/11/26 04:10:18;;;;;;;7.13;4.67;;;;;;;;;;5052396;28;20218;-81
2022/11/26 04:12:46;;;;;;;5.73;4.57;;;;;;;;;;5055986;28;20262;-81
2022/11/26 04:15:13;;;;;;;6.00;4.47;;;;;;;;;;5061895;28;20293;-81
2022/11/26 04:17:39;;;;;;;7.73;4.37;;;;;;;;;;5052234;28;20206;-81
2022/11/26 04:20:08;;;;;;;6.17;3.27;;;;;;;;;;5052581;28;20592;-81
2022/11/26 04:22:34;;;;;;;5.30;3.53;;;;;;;;;;5052870;28;20206;-81
2022/11/26 04:25:01;;;;;;;4.33;3.70;;;;;;;;;;5065241;28;20211;-81
2022/11/26 04:27:28;;;;;;;4.20;3.30;;;;;;;;;;5052282;28;20224;-81
2022/11/26 04:29:56;;;;;;;3.83;3.47;;;;;;;;;;5051885;28;20741;-81
2022/11/26 04:32:23;;;;;;;5.47;3.97;;;;;;;;;;5052030;28;20238;-80
2022/11/26 04:34:49;;;;;;;4.77;3.50;;;;;;;;;;5055522;28;20208;-80
2022/11/26 04:37:16;;;;;;;4.17;2.73;;;;;;;;;;5068054;28;20204;-80
2022/11/26 04:39:43;;;;;;;3.40;2.70;;;;;;;;;;5060103;28;20599;-80
2022/11/26 04:42:10;;;;;;;3.20;2.77;;;;;;;;;;5068079;28;20591;-80
2022/11/26 04:44:37;;;;;;;3.47;3.17;;;;;;;;;;5061855;28;20202;-81
2022/11/26 04:47:05;;;;;;;3.87;2.63;;;;;;;;;;5082504;28;20204;-81
2022/11/26 04:49:32;;;;;;;4.03;3.60;;;;;;;;;;5062864;28;20202;-81
2022/11/26 04:51:59;;;;;;;5.00;4.23;;;;;;;;;;5051557;28;20291;-81
2022/11/26 04:54:26;;;;;;;3.97;3.20;;;;;;;;;;5058818;28;20201;-81
2022/11/26 04:56:53;;;;;;;3.37;3.07;;;;;;;;;;5058655;28;20218;-81
2022/11/26 04:59:20;;;;;;;3.10;2.50;;;;;;;;;;5050933;28;20209;-81
2022/11/26 05:01:46;;;;;;;2.60;2.40;;;;;;;;;;5051677;28;20205;-81
2022/11/26 05:04:14;;;;;;;6.80;6.17;;;;;;;;;;5051288;28;20206;-81
2022/11/26 05:06:41;;;;;;;5.83;5.07;;;;;;;;;;5061232;28;20717;-82
2022/11/26 05:09:08;;;;;;;4.93;4.43;;;;;;;;;;5058444;28;20207;-81
2022/11/26 05:11:35;;;;;;;8.10;7.07;;;;;;;;;;5066383;28;20228;-81
2022/11/26 05:14:02;;;;;;;7.00;6.33;;;;;;;;;;5055981;28;20247;-81
2022/11/26 05:16:29;;;;;;;3.40;3.10;;;;;;;;;;5051377;28;20201;-81
2022/11/26 05:18:55;;;;;;;3.83;3.43;;;;;;;;;;5050327;28;20198;-80
2022/11/26 05:21:23;;;;;;;4.40;4.00;;;;;;;;;;5050482;28;20216;-81
2022/11/26 05:23:50;;;;;;;4.27;3.87;;;;;;;;;;5064717;28;20197;-79
2022/11/26 05:26:17;;;;;;;3.10;2.80;;;;;;;;;;5069688;28;20201;-81
2022/11/26 05:28:46;;;;;;;3.47;3.17;;;;;;;;;;5070299;28;20691;-80
2022/11/26 05:31:13;;;;;;;5.00;3.27;;;;;;;;;;5069605;28;20225;-80
2022/11/26 05:33:40;;;;;;;3.70;3.40;;;;;;;;;;5069065;28;20221;-81
2022/11/26 05:36:07;;;;;;;5.63;4.90;;;;;;;;;;5069717;28;20201;-80
2022/11/26 05:38:38;;;;;;;20.87;11.03;;;;;;;;;;5068672;28;20213;-80
2022/11/26 05:41:05;;;;;;;19.60;10.80;;;;;;;;;;5062025;28;20630;-80
2022/11/26 05:43:31;;;;;;;12.97;7.90;;;;;;;;;;5051107;28;20202;-80
2022/11/26 05:46:04;;;;;;;8.63;5.83;;;;;;;;;;5050515;28;20740;-80
2022/11/26 05:48:30;;;;;;;5.13;4.63;;;;;;;;;;5050772;28;20205;-80
2022/11/26 05:50:58;;;;;;;4.97;4.10;;;;;;;;;;5050564;28;20237;-80
2022/11/26 05:53:25;;;;;;;7.07;5.23;;;;;;;;;;5050371;28;20284;-81
2022/11/26 05:55:53;;;;;;;16.03;9.10;;;;;;;;;;5050641;28;20647;-81
2022/11/26 05:58:20;;;;;;;6.47;5.70;;;;;;;;;;5060914;28;20201;-82
2022/11/26 06:00:46;;;;;;;6.93;6.17;;;;;;;;;;5050860;28;20201;-83
2022/11/26 06:03:13;;;;;;;4.87;4.47;;;;;;;;;;5051043;28;20197;-83
2022/11/26 06:05:40;;;;;;;6.03;5.30;;;;;;;;;;5050014;28;20631;-83
2022/11/26 06:08:07;;;;;;;4.70;3.67;;;;;;;;;;5050289;28;20738;-84
2022/11/26 06:10:33;;;;;;;10.80;7.87;;;;;;;;;;5049870;28;20248;-85
2022/11/26 06:13:02;;;;;;;21.70;13.97;;;;;;;;;;5060222;28;20201;-84
2022/11/26 06:15:28;;;;;;;23.37;14.57;;;;;;;;;;5057302;28;20201;-83
2022/11/26 06:17:55;;;;;;;17.40;15.07;;;;;;;;;;5059414;28;20215;-84
2022/11/26 06:20:22;;;;;;;8.90;6.30;;;;;;;;;;5049490;28;20236;-83
2022/11/26 06:22:49;;;;;;;6.00;5.50;;;;;;;;;;5050043;28;20213;-83
2022/11/26 06:25:16;;;;;;;4.97;4.07;;;;;;;;;;5055046;28;20201;-83
2022/11/26 06:27:43;;;;;;;11.10;7.70;;;;;;;;;;5058503;28;20225;-82
2022/11/26 06:30:12;;;;;;;10.80;5.87;;;;;;;;;;5050074;28;20219;-83
2022/11/26 06:32:39;;;;;;;5.97;5.13;;;;;;;;;;5050266;28;20240;-84
2022/11/26 06:35:07;;;;;;;25.80;15.50;;;;;;;;;;5050675;28;20206;-82
2022/11/26 06:37:34;;;;;;;14.00;11.77;;;;;;;;;;5049859;28;20213;-84
2022/11/26 06:40:01;;;;;;;6.60;6.00;;;;;;;;;;5050443;28;20206;-84
2022/11/26 06:42:28;;;;;;;6.30;4.70;;;;;;;;;;5070611;28;20201;-83
2022/11/26 06:44:55;;;;;;;3.87;3.53;;;;;;;;;;5057558;28;20328;-83
2022/11/26 06:47:23;;;;;;;5.07;4.57;;;;;;;;;;5049690;28;20197;-84
2022/11/26 06:49:50;;;;;;;5.93;5.33;;;;;;;;;;5050414;28;20201;-84
2022/11/26 06:52:17;;;;;;;5.17;4.40;;;;;;;;;;5050175;28;20260;-84
2022/11/26 06:54:43;;;;;;;4.83;4.33;;;;;;;;;;5056575;28;20216;-84
2022/11/26 06:57:10;;;;;;;5.87;4.07;;;;;;;;;;5054580;28;20213;-85
2022/11/26 06:59:37;;;;;;;6.03;3.60;;;;;;;;;;5057680;28;20251;-85
2022/11/26 07:02:04;;;;;;;5.90;4.80;;;;;;;;;;5070146;28;20201;-85
2022/11/26 07:04:32;;;;;;;11.43;9.20;;;;;;;;;;5055810;28;20680;-86
2022/11/26 07:06:58;;;;;;;14.60;11.60;;;;;;;;;;5058483;28;20209;-85
2022/11/26 07:09:25;;;;;;;18.73;15.30;;;;;;;;;;5050452;28;20206;-85
2022/11/26 07:11:52;;;;;;;10.73;9.63;;;;;;;;;;5064040;28;20726;-85
2022/11/26 07:14:21;;;;;;;11.90;6.43;;;;;;;;;;5073603;28;20201;-85
2022/11/26 07:16:48;;;;;;;6.80;6.10;;;;;;;;;;5064312;28;20205;-85
2022/11/26 07:19:14;;;;;;;17.10;10.40;;;;;;;;;;5053703;28;20595;-85
2022/11/26 07:21:42;;;;;;;7.23;5.70;;;;;;;;;;5060733;28;20212;-85
2022/11/26 07:24:09;;;;;;;8.97;4.97;;;;;;;;;;5073367;28;20592;-82
2022/11/26 07:26:36;;;;;;;9.90;5.60;;;;;;;;;;5053237;28;20669;-82
2022/11/26 07:29:03;;;;;;;7.13;5.63;;;;;;;;;;5065567;28;20238;-82
2022/11/26 07:31:30;;;;;;;7.77;5.93;;;;;;;;;;5068715;28;20674;-83
2022/11/26 07:33:57;;;;;;;6.50;5.80;;;;;;;;;;5053787;28;20623;-82
2022/11/26 07:36:28;;;;;;;6.77;5.17;;;;;;;;;;5069687;28;20209;-82
2022/11/26 07:38:58;;;;;;;8.33;6.33;;;;;;;;;;5072919;28;20292;-83
2022/11/26 07:41:25;;;;;;;7.17;5.47;;;;;;;;;;5073159;28;20266;-82
2022/11/26 07:43:52;;;;;;;6.87;5.43;;;;;;;;;;5072741;28;20227;-83
2022/11/26 07:46:20;;;;;;;8.43;6.53;;;;;;;;;;5063226;28;20304;-83
2022/11/26 07:48:47;;;;;;;9.80;7.03;;;;;;;;;;5055571;28;20209;-83
2022/11/26 07:51:17;;;;;;;11.07;8.23;;;;;;;;;;5073379;28;20233;-83
2022/11/26 07:53:47;;;;;;;5.23;4.73;;;;;;;;;;5072201;28;20212;-84
2022/11/26 07:56:15;;;;;;;5.70;4.83;;;;;;;;;;5052658;28;20232;-85
2022/11/26 07:58:42;;;;;;;6.23;5.20;;;;;;;;;;5067191;28;20664;-85
2022/11/26 08:01:09;;;;;;;8.67;5.70;;;;;;;;;;5073217;28;20197;-84
2022/11/26 08:03:39;;;;;;;6.97;5.07;;;;;;;;;;5060075;28;20209;-84
2022/11/26 08:06:08;;;;;;;5.73;5.03;;;;;;;;;;5066751;28;20206;-84
2022/11/26 08:08:35;;;;;;;6.27;4.10;;;;;;;;;;5063871;28;20667;-84
2022/11/26 08:11:01;;;;;;;3.90;3.50;;;;;;;;;;5072563;28;20252;-85
2022/11/26 08:13:30;;;;;;;6.17;5.10;;;;;;;;;;5072624;28;20201;-84
2022/11/26 08:15:58;;;;;;;5.93;4.97;;;;;;;;;;5056540;28;20198;-84
2022/11/26 08:18:24;;;;;;;4.67;3.80;;;;;;;;;;5060719;28;20213;-84
2022/11/26 08:20:55;;;;;;;3.53;3.10;;;;;;;;;;5058134;28;20209;-84
2022/11/26 08:23:23;;;;;;;2.93;2.13;;;;;;;;;;5065372;28;20210;-84
2022/11/26 08:25:50;;;;;;;7.13;4.43;;;;;;;;;;5052240;28;20634;-83
2022/11/26 08:28:18;;;;;;;3.17;2.80;;;;;;;;;;5071623;28;20251;-84
2022/11/26 08:30:46;;;;;;;3.13;2.60;;;;;;;;;;5072267;28;20204;-84
2022/11/26 08:33:13;;;;;;;6.87;4.43;;;;;;;;;;5072112;28;20654;-84
2022/11/26 08:35:40;;;;;;;3.43;3.10;;;;;;;;;;5061319;28;20202;-84
2022/11/26 08:38:07;;;;;;;5.13;3.87;;;;;;;;;;5056044;28;20622;-83
2022/11/26 08:40:33;;;;;;;3.50;2.80;;;;;;;;;;5070671;28;20649;-85
2022/11/26 08:43:00;;;;;;;2.40;2.20;;;;;;;;;;5072197;28;20201;-84
2022/11/26 08:45:27;;;;;;;2.10;2.00;;;;;;;;;;5072238;28;20209;-84
2022/11/26 08:47:55;;;;;;;3.27;2.10;;;;;;;;;;5072147;28;20201;-84
2022/11/26 08:50:22;;;;;;;2.00;1.60;;;;;;;;;;5056009;28;20577;-84
2022/11/26 08:52:49;;;;;;;2.47;2.27;;;;;;;;;;5059777;28;20244;-84
2022/11/26 08:55:15;;;;;;;2.67;1.87;;;;;;;;;;5058202;28;20279;-83
2022/11/26 08:57:42;;;;;;;1.73;1.63;;;;;;;;;;5071854;28;20205;-84
2022/11/26 09:00:10;;;;;;;3.17;2.30;;;;;;;;;;5071267;28;20209;-83
2022/11/26 09:02:37;;;;;;;2.90;2.07;;;;;;;;;;5067324;28;20202;-84
2022/11/26 09:05:06;;;;;;;1.73;1.63;;;;;;;;;;5062198;28;20263;-85
2022/11/26 09:07:33;;;;;;;2.10;1.90;;;;;;;;;;5054434;28;20209;-84
2022/11/26 09:09:59;;;;;;;2.13;1.87;;;;;;;;;;5051157;28;20213;-83
2022/11/26 09:12:26;;;;;;;2.63;2.27;;;;;;;;;;5051350;28;20648;-84
2022/11/26 09:14:53;;;;;;;4.00;2.40;;;;;;;;;;5058216;28;20705;-83
2022/11/26 09:17:20;;;;;;;3.90;3.50;;;;;;;;;;5071132;28;20209;-85
2022/11/26 09:19:50;;;;;;;1.97;1.80;;;;;;;;;;5065767;28;20206;-84
2022/11/26 09:22:18;;;;;;;2.23;1.83;;;;;;;;;;5051096;28;20216;-84
2022/11/26 09:24:44;;;;;;;2.00;1.60;;;;;;;;;;5065040;28;20205;-83
2022/11/26 09:27:11;;;;;;;2.57;1.47;;;;;;;;;;5061692;28;20208;-84
2022/11/26 09:29:38;;;;;;;2.63;1.50;;;;;;;;;;5054283;28;20209;-83
2022/11/26 09:32:08;;;;;;;2.93;1.97;;;;;;;;;;5049879;28;20288;-84
2022/11/26 09:34:35;;;;;;;2.83;2.20;;;;;;;;;;5051854;28;20205;-85
2022/11/26 09:37:02;;;;;;;3.97;2.27;;;;;;;;;;5067355;28;20201;-84
2022/11/26 09:39:30;;;;;;;1.87;1.77;;;;;;;;;;5061085;28;20260;-83
2022/11/26 09:42:02;;;;;;;1.63;1.53;;;;;;;;;;5067395;28;20201;-84
2022/11/26 09:44:40;;;;;;;2.47;1.93;;;;;;;;;;5070226;28;20212;-84
2022/11/26 09:47:11;;;;;;;1.43;1.33;;;;;;;;;;5054398;28;20210;-84
2022/11/26 09:49:44;;;;;;;3.73;3.30;;;;;;;;;;5060427;28;20259;-84
2022/11/26 09:52:13;;;;;;;2.63;2.33;;;;;;;;;;5056630;28;20225;-83
2022/11/26 09:54:42;;;;;;;2.90;2.20;;;;;;;;;;5061935;28;20209;-84
2022/11/26 09:57:19;;;;;;;2.63;2.10;;;;;;;;;;5065647;28;20702;-84
2022/11/26 09:59:46;;;;;;;1.73;1.63;;;;;;;;;;5061882;28;20210;-84
2022/11/26 10:02:13;;;;;;;1.57;1.47;;;;;;;;;;5051740;28;20225;-84
2022/11/26 10:04:40;;;;;;;4.10;3.70;;;;;;;;;;5063164;28;20209;-83
2022/11/26 10:07:20;;;;;;;5.00;3.70;;;;;;;;;;5050489;28;20289;-84
2022/11/26 10:10:00;;;;;;;5.27;4.77;;;;;;;;;;5057695;28;20588;-83
2022/11/26 10:12:34;;;;;;;5.37;4.87;;;;;;;;;;5069581;28;20235;-83
2022/11/26 10:15:11;;;;;;;7.63;6.30;;;;;;;;;;5050498;28;20210;-83
2022/11/26 10:17:47;;;;;;;8.77;5.03;;;;;;;;;;5050341;28;20209;-83
2022/11/26 10:20:53;;;;;;;5.57;5.03;;;;;;;;;;5059307;28;20203;-82
2022/11/26 10:23:25;;;;;;;4.87;4.33;;;;;;;;;;5050353;28;20209;-82
2022/11/26 10:25:55;;;;;;;7.67;6.87;;;;;;;;;;5049741;28;20208;-82
2022/11/26 10:28:25;;;;;;;8.20;7.40;;;;;;;;;;5050062;28;20301;-82
2022/11/26 10:30:57;;;;;;;8.73;7.93;;;;;;;;;;5050495;28;20205;-82
2022/11/26 10:33:24;;;;;;;9.30;6.60;;;;;;;;;;5049934;28;20260;-83
2022/11/26 10:35:52;;;;;;;97.83;61.47;;;;;;;;;;5050024;28;20254;-82
2022/11/26 10:38:18;;;;;;;56.10;34.90;;;;;;;;;;5078540;28;20227;-83
2022/11/26 10:40:45;;;;;;;10.80;8.43;;;;;;;;;;5049879;28;20198;-82
2022/11/26 10:43:18;;;;;;;37.33;22.97;;;;;;;;;;5049988;28;20597;-82
2022/11/26 10:45:46;;;;;;;26.90;17.20;;;;;;;;;;5053483;28;20266;-82
2022/11/26 10:48:31;;;;;;;23.47;18.50;;;;;;;;;;5054299;28;20205;-82
2022/11/26 10:51:01;;;;;;;20.77;13.07;;;;;;;;;;5053572;28;20202;-82
2022/11/26 10:53:30;;;;;;;44.97;32.60;;;;;;;;;;5053224;28;20226;-81
2022/11/26 10:55:58;;;;;;;4.67;4.27;;;;;;;;;;5053690;28;20716;-82
2022/11/26 10:58:28;;;;;;;135.77;99.57;;;;;;;;;;5053750;28;20285;-81
2022/11/26 11:00:58;;;;;;;9.27;8.20;;;;;;;;;;5067729;28;20205;-82
2022/11/26 11:03:27;;;;;;;7.10;5.30;;;;;;;;;;5064296;28;20207;-83
2022/11/26 11:06:10;;;;;;;6.43;3.60;;;;;;;;;;5055687;28;20260;-82
2022/11/26 11:08:37;;;;;;;37.30;21.90;;;;;;;;;;5053728;28;20202;-82
2022/11/26 11:11:04;;;;;;;17.63;11.37;;;;;;;;;;5053500;28;20216;-82
2022/11/26 11:13:43;;;;;;;6.70;5.23;;;;;;;;;;5053259;28;20233;-82
2022/11/26 11:16:11;;;;;;;3.60;3.30;;;;;;;;;;5053472;28;20202;-83
2022/11/26 11:18:38;;;;;;;6.13;5.40;;;;;;;;;;5053687;28;20202;-82
2022/11/26 11:21:09;;;;;;;3.40;3.10;;;;;;;;;;5067107;28;20201;-82
2022/11/26 11:23:37;;;;;;;5.27;4.50;;;;;;;;;;5062749;28;20191;-81
2022/11/26 11:26:07;;;;;;;9.07;6.43;;;;;;;;;;5057691;28;20202;-83
2022/11/26 11:28:38;;;;;;;4.13;3.73;;;;;;;;;;5052962;28;20595;-82
2022/11/26 11:31:08;;;;;;;26.83;15.20;;;;;;;;;;5052710;28;20206;-81
2022/11/26 11:33:35;;;;;;;18.73;12.57;;;;;;;;;;5052741;28;20237;-82
2022/11/26 11:36:14;;;;;;;16.43;9.50;;;;;;;;;;5053152;28;20210;-81
2022/11/26 11:38:47;;;;;;;17.20;11.03;;;;;;;;;;5081247;28;20205;-81
2022/11/26 11:41:20;;;;;;;5.97;5.17;;;;;;;;;;5052613;28;20205;-82
2022/11/26 11:43:48;;;;;;;15.77;10.53;;;;;;;;;;5052699;28;20222;-81
2022/11/26 11:46:32;;;;;;;8.43;4.97;;;;;;;;;;5053066;28;20229;-82
2022/11/26 11:49:10;;;;;;;9.30;7.20;;;;;;;;;;5052697;28;20210;-81
2022/11/26 11:51:44;;;;;;;25.07;14.73;;;;;;;;;;5052673;28;20205;-82
2022/11/26 11:54:17;;;;;;;10.57;8.63;;;;;;;;;;5052781;28;20236;-82
2022/11/26 11:56:46;;;;;;;6.90;4.53;;;;;;;;;;5063826;28;20262;-82
2022/11/26 11:59:46;;;;;;;5.50;5.00;;;;;;;;;;5053745;28;20284;-82
2022/11/26 12:02:37;;;;;;;5.57;3.90;;;;;;;;;;5066335;28;20246;-82
2022/11/26 12:05:24;;;;;;;5.70;5.13;;;;;;;;;;5052327;28;20205;-82
2022/11/26 12:07:54;;;;;;;5.87;5.00;;;;;;;;;;5052750;28;20209;-82
2022/11/26 12:10:25;;;;;;;5.67;5.10;;;;;;;;;;5051725;28;20206;-82
2022/11/26 12:12:55;;;;;;;5.43;4.90;;;;;;;;;;5052366;28;20232;-82
2022/11/26 12:15:24;;;;;;;4.83;4.07;;;;;;;;;;5052523;28;20217;-82
2022/11/26 12:17:55;;;;;;;5.57;4.60;;;;;;;;;;5052625;28;20208;-82
2022/11/26 12:20:28;;;;;;;7.67;6.63;;;;;;;;;;5052120;28;20236;-81
2022/11/26 12:22:59;;;;;;;9.97;8.77;;;;;;;;;;5066040;28;20684;-81
2022/11/26 12:25:30;;;;;;;6.67;5.73;;;;;;;;;;5052118;28;20212;-82
2022/11/26 12:28:00;;;;;;;7.87;5.90;;;;;;;;;;5052290;28;20217;-82
2022/11/26 12:30:33;;;;;;;7.20;4.70;;;;;;;;;;5051863;28;20760;-82
2022/11/26 12:33:04;;;;;;;5.40;4.90;;;;;;;;;;5054626;28;20291;-81
2022/11/26 12:35:34;;;;;;;4.93;4.43;;;;;;;;;;5062555;28;20202;-82
2022/11/26 12:38:04;;;;;;;4.73;4.03;;;;;;;;;;5075824;28;20235;-82
2022/11/26 12:40:34;;;;;;;6.30;5.70;;;;;;;;;;5054536;28;20208;-82
2022/11/26 12:43:06;;;;;;;5.67;4.90;;;;;;;;;;5052249;28;20204;-82
2022/11/26 12:45:41;;;;;;;4.40;4.00;;;;;;;;;;5069474;28;20198;-82
2022/11/26 12:48:18;;;;;;;7.13;3.63;;;;;;;;;;5060577;28;20241;-82
2022/11/26 12:50:50;;;;;;;5.07;4.23;;;;;;;;;;5051188;28;20209;-82
2022/11/26 12:53:22;;;;;;;4.97;4.53;;;;;;;;;;5051752;28;20229;-82
2022/11/26 12:55:54;;;;;;;4.47;4.07;;;;;;;;;;5055908;28;20219;-82
2022/11/26 12:58:24;;;;;;;7.03;5.73;;;;;;;;;;5071240;28;20703;-82
2022/11/26 13:00:54;;;;;;;5.20;4.03;;;;;;;;;;5056969;28;20586;-82
2022/11/26 13:03:26;;;;;;;4.77;4.03;;;;;;;;;;5060827;28;20236;-82
2022/11/26 13:06:00;;;;;;;6.40;4.93;;;;;;;;;;5051300;28;20209;-82
2022/11/26 13:08:36;;;;;;;3.97;3.67;;;;;;;;;;5051347;28;20206;-82
2022/11/26 13:11:24;;;;;;;5.70;4.23;;;;;;;;;;5050868;28;20201;-82
2022/11/26 13:13:57;;;;;;;4.70;4.30;;;;;;;;;;5048751;28;20283;-82
2022/11/26 13:16:33;;;;;;;3.97;3.47;;;;;;;;;;5056950;28;20195;-82
2022/11/26 13:19:05;;;;;;;4.93;4.47;;;;;;;;;;5057540;28;20602;-82
2022/11/26 13:21:56;;;;;;;5.23;4.03;;;;;;;;;;5050787;28;20204;-80
2022/11/26 13:24:33;;;;;;;5.03;4.30;;;;;;;;;;5065247;28;20197;-82
2022/11/26 13:27:12;;;;;;;5.67;4.30;;;;;;;;;;5051350;28;20213;-82
2022/11/26 13:29:56;;;;;;;5.73;4.27;;;;;;;;;;5050796;28;20224;-82
2022/11/26 13:32:42;;;;;;;5.37;4.63;;;;;;;;;;5050836;28;20595;-82
2022/11/26 13:35:20;;;;;;;17.90;11.40;;;;;;;;;;5050691;28;20652;-82
2022/11/26 13:37:57;;;;;;;10.63;8.20;;;;;;;;;;5060568;28;20208;-82
2022/11/26 13:40:58;;;;;;;8.97;5.07;;;;;;;;;;5053160;28;20201;-82
2022/11/26 13:43:53;;;;;;;25.67;17.77;;;;;;;;;;5050720;28;20208;-83
2022/11/26 13:46:22;;;;;;;36.80;26.73;;;;;;;;;;5060095;28;20206;-82
2022/11/26 13:48:55;;;;;;;9.67;7.10;;;;;;;;;;5067475;28;20212;-81
2022/11/26 13:51:27;;;;;;;16.07;12.17;;;;;;;;;;5061053;28;20193;-83
2022/11/26 13:53:57;;;;;;;13.83;9.80;;;;;;;;;;5053309;28;20230;-82
2022/11/26 13:56:30;;;;;;;26.87;16.70;;;;;;;;;;5061516;28;20209;-82
2022/11/26 13:59:00;;;;;;;10.07;8.97;;;;;;;;;;5050141;28;20779;-82
2022/11/26 14:01:28;;;;;;;23.70;16.17;;;;;;;;;;5050460;28;20229;-82
2022/11/26 14:03:57;;;;;;;26.13;17.67;;;;;;;;;;5065651;28;20592;-82
2022/11/26 14:06:26;;;;;;;15.40;12.60;;;;;;;;;;5063321;28;20194;-82
2022/11/26 14:08:54;;;;;;;29.63;19.70;;;;;;;;;;5050376;28;20213;-82
2022/11/26 14:11:55;;;;;;;16.17;9.13;;;;;;;;;;5050055;28;20193;-83
2022/11/26 14:14:33;;;;;;;12.07;9.87;;;;;;;;;;5049957;28;20232;-82
2022/11/26 14:17:22;;;;;;;6.43;5.40;;;;;;;;;;5050195;28;20210;-82
2022/11/26 14:20:11;;;;;;;8.60;6.83;;;;;;;;;;5066862;28;20205;-82
2022/11/26 14:22:39;;;;;;;16.57;11.97;;;;;;;;;;5068408;28;20284;-82
2022/11/26 14:25:09;;;;;;;49.13;31.50;;;;;;;;;;5054143;28;20201;-82
2022/11/26 14:27:38;;;;;;;40.20;26.20;;;;;;;;;;5054293;28;20917;-82
2022/11/26 14:30:21;;;;;;;18.43;11.30;;;;;;;;;;5053808;28;20220;-83
2022/11/26 14:32:54;;;;;;;22.00;14.10;;;;;;;;;;5054452;28;20279;-82
2022/11/26 14:35:24;;;;;;;7.77;5.87;;;;;;;;;;5054146;28;20201;-83
2022/11/26 14:37:54;;;;;;;4.37;3.60;;;;;;;;;;5075429;28;20597;-82
2022/11/26 14:40:25;;;;;;;2.83;2.43;;;;;;;;;;5059606;28;20692;-82
2022/11/26 14:43:14;;;;;;;3.93;3.53;;;;;;;;;;5053572;28;20210;-83
2022/11/26 14:45:42;;;;;;;3.83;3.43;;;;;;;;;;5067710;28;20202;-82
2022/11/26 14:48:20;;;;;;;5.53;3.23;;;;;;;;;;5065354;28;20201;-82
2022/11/26 14:50:50;;;;;;;4.80;4.27;;;;;;;;;;5059492;28;20212;-82
2022/11/26 14:53:20;;;;;;;9.53;8.53;;;;;;;;;;5073387;28;20228;-83
2022/11/26 14:55:48;;;;;;;8.27;7.47;;;;;;;;;;5069896;28;20255;-83